sensor_id;sensor_type;location;lat;lon;timestamp;P1;durP1;ratioP1;P2;durP2;ratioP2
54177;SDS011;40085;53.004;6.770;2024-02-14T00:02:08;1.65;;;1.55;;
54177;SDS011;40085;53.004;6.770;2024-02-14T00:04:34;1.33;;;1.23;;
54177;SDS011;40085;53.004;6.770;2024-02-14T00:07:00;2.28;;;1.30;;
54177;SDS011;40085;53.004;6.770;2024-02-14T00:09:25;1.63;;;1.48;;
54177;SDS011;40085;53.004;6.770;2024-02-14T00:11:51;1.58;;;1.48;;
54177;SDS011;40085;53.004;6.770;2024-02-14T00:14:17;1.45;;;1.35;;
54177;SDS011;40085;53.004;6.770;2024-02-14T00:16:45;2.10;;;1.40;;
54177;SDS011;40085;53.004;6.770;2024-02-14T00:19:11;1.40;;;1.30;;
54177;SDS011;40085;53.004;6.770;2024-02-14T00:21:36;2.42;;;1.52;;
54177;SDS011;40085;53.004;6.770;2024-02-14T00:24:03;1.17;;;1.10;;
54177;SDS011;40085;53.004;6.770;2024-02-14T00:26:29;1.38;;;1.27;;
54177;SDS011;40085;53.004;6.770;2024-02-14T00:28:55;1.58;;;1.48;;
54177;SDS011;40085;53.004;6.770;2024-02-14T00:31:21;1.48;;;1.38;;
54177;SDS011;40085;53.004;6.770;2024-02-14T00:33:47;1.50;;;1.15;;
54177;SDS011;40085;53.004;6.770;2024-02-14T00:36:12;1.60;;;1.50;;
54177;SDS011;40085;53.004;6.770;2024-02-14T00:38:38;1.65;;;1.40;;
54177;SDS011;40085;53.004;6.770;2024-02-14T00:41:04;1.48;;;1.38;;
54177;SDS011;40085;53.004;6.770;2024-02-14T00:43:30;1.15;;;1.13;;
54177;SDS011;40085;53.004;6.770;2024-02-14T00:45:55;1.52;;;1.42;;
54177;SDS011;40085;53.004;6.770;2024-02-14T00:48:22;1.70;;;1.60;;
54177;SDS011;40085;53.004;6.770;2024-02-14T00:50:48;1.55;;;1.20;;
54177;SDS011;40085;53.004;6.770;2024-02-14T00:53:13;1.38;;;1.27;;
54177;SDS011;40085;53.004;6.770;2024-02-14T00:55:46;1.33;;;1.23;;
54177;SDS011;40085;53.004;6.770;2024-02-14T00:58:11;1.45;;;1.30;;
54177;SDS011;40085;53.004;6.770;2024-02-14T01:00:37;1.40;;;1.30;;
54177;SDS011;40085;53.004;6.770;2024-02-14T01:03:03;1.50;;;1.40;;
54177;SDS011;40085;53.004;6.770;2024-02-14T01:05:29;1.42;;;1.33;;
54177;SDS011;40085;53.004;6.770;2024-02-14T01:07:54;1.40;;;1.30;;
54177;SDS011;40085;53.004;6.770;2024-02-14T01:10:20;1.38;;;1.27;;
54177;SDS011;40085;53.004;6.770;2024-02-14T01:12:46;2.20;;;1.20;;
54177;SDS011;40085;53.004;6.770;2024-02-14T01:15:11;1.33;;;1.23;;
54177;SDS011;40085;53.004;6.770;2024-02-14T01:17:37;1.40;;;1.23;;
54177;SDS011;40085;53.004;6.770;2024-02-14T01:20:04;1.48;;;1.38;;
54177;SDS011;40085;53.004;6.770;2024-02-14T01:22:32;1.20;;;1.10;;
54177;SDS011;40085;53.004;6.770;2024-02-14T01:24:58;1.50;;;1.40;;
54177;SDS011;40085;53.004;6.770;2024-02-14T01:27:24;1.40;;;1.30;;
54177;SDS011;40085;53.004;6.770;2024-02-14T01:29:50;1.00;;;1.00;;
54177;SDS011;40085;53.004;6.770;2024-02-14T01:32:15;1.30;;;1.20;;
54177;SDS011;40085;53.004;6.770;2024-02-14T01:34:42;1.02;;;1.02;;
54177;SDS011;40085;53.004;6.770;2024-02-14T01:37:07;1.10;;;1.10;;
54177;SDS011;40085;53.004;6.770;2024-02-14T01:39:35;0.90;;;0.90;;
54177;SDS011;40085;53.004;6.770;2024-02-14T01:42:00;1.00;;;1.00;;
54177;SDS011;40085;53.004;6.770;2024-02-14T01:44:31;1.30;;;1.20;;
54177;SDS011;40085;53.004;6.770;2024-02-14T01:46:58;1.25;;;1.10;;
54177;SDS011;40085;53.004;6.770;2024-02-14T01:49:24;1.00;;;1.00;;
54177;SDS011;40085;53.004;6.770;2024-02-14T01:51:53;1.10;;;1.10;;
54177;SDS011;40085;53.004;6.770;2024-02-14T01:54:31;0.90;;;0.90;;
54177;SDS011;40085;53.004;6.770;2024-02-14T01:57:05;0.80;;;0.80;;
54177;SDS011;40085;53.004;6.770;2024-02-14T01:59:31;0.98;;;0.95;;
54177;SDS011;40085;53.004;6.770;2024-02-14T02:01:59;1.17;;;1.08;;
54177;SDS011;40085;53.004;6.770;2024-02-14T02:04:25;0.95;;;0.95;;
54177;SDS011;40085;53.004;6.770;2024-02-14T02:06:51;0.90;;;0.90;;
54177;SDS011;40085;53.004;6.770;2024-02-14T02:09:21;1.20;;;1.10;;
54177;SDS011;40085;53.004;6.770;2024-02-14T02:11:48;1.02;;;1.02;;
54177;SDS011;40085;53.004;6.770;2024-02-14T02:14:15;1.20;;;1.13;;
54177;SDS011;40085;53.004;6.770;2024-02-14T02:16:41;0.90;;;0.90;;
54177;SDS011;40085;53.004;6.770;2024-02-14T02:19:07;0.88;;;0.88;;
54177;SDS011;40085;53.004;6.770;2024-02-14T02:21:37;0.90;;;0.90;;
54177;SDS011;40085;53.004;6.770;2024-02-14T02:24:03;0.90;;;0.90;;
54177;SDS011;40085;53.004;6.770;2024-02-14T02:26:30;0.80;;;0.80;;
54177;SDS011;40085;53.004;6.770;2024-02-14T02:28:55;1.00;;;1.00;;
54177;SDS011;40085;53.004;6.770;2024-02-14T02:31:21;0.90;;;0.90;;
54177;SDS011;40085;53.004;6.770;2024-02-14T02:33:47;0.93;;;0.93;;
54177;SDS011;40085;53.004;6.770;2024-02-14T02:36:14;0.88;;;0.82;;
54177;SDS011;40085;53.004;6.770;2024-02-14T02:38:41;0.70;;;0.70;;
54177;SDS011;40085;53.004;6.770;2024-02-14T02:41:07;1.10;;;1.00;;
54177;SDS011;40085;53.004;6.770;2024-02-14T02:43:32;0.88;;;0.88;;
54177;SDS011;40085;53.004;6.770;2024-02-14T02:45:58;0.80;;;0.80;;
54177;SDS011;40085;53.004;6.770;2024-02-14T02:48:24;0.93;;;0.93;;
54177;SDS011;40085;53.004;6.770;2024-02-14T02:50:50;1.38;;;1.20;;
54177;SDS011;40085;53.004;6.770;2024-02-14T02:53:16;0.80;;;0.80;;
54177;SDS011;40085;53.004;6.770;2024-02-14T02:55:56;0.80;;;0.80;;
54177;SDS011;40085;53.004;6.770;2024-02-14T02:58:22;0.63;;;0.63;;
54177;SDS011;40085;53.004;6.770;2024-02-14T03:00:48;0.70;;;0.70;;
54177;SDS011;40085;53.004;6.770;2024-02-14T03:03:18;0.80;;;0.80;;
54177;SDS011;40085;53.004;6.770;2024-02-14T03:05:44;0.90;;;0.90;;
54177;SDS011;40085;53.004;6.770;2024-02-14T03:08:10;0.60;;;0.60;;
54177;SDS011;40085;53.004;6.770;2024-02-14T03:10:40;0.80;;;0.80;;
54177;SDS011;40085;53.004;6.770;2024-02-14T03:13:06;0.65;;;0.65;;
54177;SDS011;40085;53.004;6.770;2024-02-14T03:15:36;0.70;;;0.70;;
54177;SDS011;40085;53.004;6.770;2024-02-14T03:18:02;0.80;;;0.80;;
54177;SDS011;40085;53.004;6.770;2024-02-14T03:20:33;1.77;;;0.82;;
54177;SDS011;40085;53.004;6.770;2024-02-14T03:22:58;0.90;;;0.90;;
54177;SDS011;40085;53.004;6.770;2024-02-14T03:25:24;0.60;;;0.60;;
54177;SDS011;40085;53.004;6.770;2024-02-14T03:27:50;0.90;;;0.90;;
54177;SDS011;40085;53.004;6.770;2024-02-14T03:30:18;0.77;;;0.77;;
54177;SDS011;40085;53.004;6.770;2024-02-14T03:32:45;0.70;;;0.70;;
54177;SDS011;40085;53.004;6.770;2024-02-14T03:35:11;0.80;;;0.80;;
54177;SDS011;40085;53.004;6.770;2024-02-14T03:37:41;0.70;;;0.70;;
54177;SDS011;40085;53.004;6.770;2024-02-14T03:40:07;0.63;;;0.63;;
54177;SDS011;40085;53.004;6.770;2024-02-14T03:42:34;1.00;;;1.00;;
54177;SDS011;40085;53.004;6.770;2024-02-14T03:45:00;0.73;;;0.73;;
54177;SDS011;40085;53.004;6.770;2024-02-14T03:47:30;0.80;;;0.80;;
54177;SDS011;40085;53.004;6.770;2024-02-14T03:49:58;0.77;;;0.77;;
54177;SDS011;40085;53.004;6.770;2024-02-14T03:52:24;0.80;;;0.80;;
54177;SDS011;40085;53.004;6.770;2024-02-14T03:54:50;0.77;;;0.77;;
54177;SDS011;40085;53.004;6.770;2024-02-14T03:57:22;0.98;;;0.98;;
54177;SDS011;40085;53.004;6.770;2024-02-14T03:59:50;0.77;;;0.77;;
54177;SDS011;40085;53.004;6.770;2024-02-14T04:02:17;0.80;;;0.80;;
54177;SDS011;40085;53.004;6.770;2024-02-14T04:04:43;0.90;;;0.90;;
54177;SDS011;40085;53.004;6.770;2024-02-14T04:07:11;0.70;;;0.70;;
54177;SDS011;40085;53.004;6.770;2024-02-14T04:09:37;0.80;;;0.80;;
54177;SDS011;40085;53.004;6.770;2024-02-14T04:12:03;0.88;;;0.88;;
54177;SDS011;40085;53.004;6.770;2024-02-14T04:14:30;0.75;;;0.75;;
54177;SDS011;40085;53.004;6.770;2024-02-14T04:16:56;0.90;;;0.90;;
54177;SDS011;40085;53.004;6.770;2024-02-14T04:19:22;0.70;;;0.70;;
54177;SDS011;40085;53.004;6.770;2024-02-14T04:21:48;0.60;;;0.60;;
54177;SDS011;40085;53.004;6.770;2024-02-14T04:24:14;0.98;;;0.90;;
54177;SDS011;40085;53.004;6.770;2024-02-14T04:26:39;0.80;;;0.80;;
54177;SDS011;40085;53.004;6.770;2024-02-14T04:29:05;0.80;;;0.80;;
54177;SDS011;40085;53.004;6.770;2024-02-14T04:31:32;0.80;;;0.80;;
54177;SDS011;40085;53.004;6.770;2024-02-14T04:33:58;0.80;;;0.80;;
54177;SDS011;40085;53.004;6.770;2024-02-14T04:36:24;0.90;;;0.90;;
54177;SDS011;40085;53.004;6.770;2024-02-14T04:38:50;0.90;;;0.90;;
54177;SDS011;40085;53.004;6.770;2024-02-14T04:41:16;0.90;;;0.90;;
54177;SDS011;40085;53.004;6.770;2024-02-14T04:43:49;0.77;;;0.77;;
54177;SDS011;40085;53.004;6.770;2024-02-14T04:46:28;0.82;;;0.82;;
54177;SDS011;40085;53.004;6.770;2024-02-14T04:49:01;0.70;;;0.70;;
54177;SDS011;40085;53.004;6.770;2024-02-14T04:51:30;0.85;;;0.85;;
54177;SDS011;40085;53.004;6.770;2024-02-14T04:53:56;0.80;;;0.80;;
54177;SDS011;40085;53.004;6.770;2024-02-14T04:56:37;0.75;;;0.75;;
54177;SDS011;40085;53.004;6.770;2024-02-14T04:59:03;0.80;;;0.80;;
54177;SDS011;40085;53.004;6.770;2024-02-14T05:01:30;0.80;;;0.80;;
54177;SDS011;40085;53.004;6.770;2024-02-14T05:03:56;0.82;;;0.82;;
54177;SDS011;40085;53.004;6.770;2024-02-14T05:06:22;0.90;;;0.90;;
54177;SDS011;40085;53.004;6.770;2024-02-14T05:08:47;0.82;;;0.82;;
54177;SDS011;40085;53.004;6.770;2024-02-14T05:11:13;0.90;;;0.90;;
54177;SDS011;40085;53.004;6.770;2024-02-14T05:13:39;0.80;;;0.80;;
54177;SDS011;40085;53.004;6.770;2024-02-14T05:16:06;0.90;;;0.90;;
54177;SDS011;40085;53.004;6.770;2024-02-14T05:18:34;0.90;;;0.90;;
54177;SDS011;40085;53.004;6.770;2024-02-14T05:20:59;0.90;;;0.90;;
54177;SDS011;40085;53.004;6.770;2024-02-14T05:23:25;1.00;;;1.00;;
54177;SDS011;40085;53.004;6.770;2024-02-14T05:25:50;0.80;;;0.80;;
54177;SDS011;40085;53.004;6.770;2024-02-14T05:28:16;0.73;;;0.73;;
54177;SDS011;40085;53.004;6.770;2024-02-14T05:30:43;1.00;;;1.00;;
54177;SDS011;40085;53.004;6.770;2024-02-14T05:33:10;0.80;;;0.80;;
54177;SDS011;40085;53.004;6.770;2024-02-14T05:35:36;0.80;;;0.80;;
54177;SDS011;40085;53.004;6.770;2024-02-14T05:38:01;0.80;;;0.80;;
54177;SDS011;40085;53.004;6.770;2024-02-14T05:40:29;0.80;;;0.80;;
54177;SDS011;40085;53.004;6.770;2024-02-14T05:42:55;0.80;;;0.80;;
54177;SDS011;40085;53.004;6.770;2024-02-14T05:45:21;0.80;;;0.80;;
54177;SDS011;40085;53.004;6.770;2024-02-14T05:47:47;0.90;;;0.90;;
54177;SDS011;40085;53.004;6.770;2024-02-14T05:50:12;0.80;;;0.80;;
54177;SDS011;40085;53.004;6.770;2024-02-14T05:52:38;0.90;;;0.90;;
54177;SDS011;40085;53.004;6.770;2024-02-14T05:55:04;0.80;;;0.80;;
54177;SDS011;40085;53.004;6.770;2024-02-14T05:57:37;0.82;;;0.82;;
54177;SDS011;40085;53.004;6.770;2024-02-14T06:00:03;0.70;;;0.70;;
54177;SDS011;40085;53.004;6.770;2024-02-14T06:02:29;0.70;;;0.70;;
54177;SDS011;40085;53.004;6.770;2024-02-14T06:04:55;0.82;;;0.82;;
54177;SDS011;40085;53.004;6.770;2024-02-14T06:07:21;0.73;;;0.73;;
54177;SDS011;40085;53.004;6.770;2024-02-14T06:09:46;0.82;;;0.82;;
54177;SDS011;40085;53.004;6.770;2024-02-14T06:12:12;0.90;;;0.90;;
54177;SDS011;40085;53.004;6.770;2024-02-14T06:14:37;0.70;;;0.70;;
54177;SDS011;40085;53.004;6.770;2024-02-14T06:17:04;0.85;;;0.85;;
54177;SDS011;40085;53.004;6.770;2024-02-14T06:19:30;0.73;;;0.73;;
54177;SDS011;40085;53.004;6.770;2024-02-14T06:21:57;0.80;;;0.80;;
54177;SDS011;40085;53.004;6.770;2024-02-14T06:24:24;0.80;;;0.80;;
54177;SDS011;40085;53.004;6.770;2024-02-14T06:26:49;0.80;;;0.80;;
54177;SDS011;40085;53.004;6.770;2024-02-14T06:29:15;0.70;;;0.70;;
54177;SDS011;40085;53.004;6.770;2024-02-14T06:31:41;0.80;;;0.80;;
54177;SDS011;40085;53.004;6.770;2024-02-14T06:34:07;0.90;;;0.90;;
54177;SDS011;40085;53.004;6.770;2024-02-14T06:36:33;1.02;;;1.00;;
54177;SDS011;40085;53.004;6.770;2024-02-14T06:38:58;1.10;;;1.00;;
54177;SDS011;40085;53.004;6.770;2024-02-14T06:41:24;0.80;;;0.80;;
54177;SDS011;40085;53.004;6.770;2024-02-14T06:43:50;2.45;;;1.33;;
54177;SDS011;40085;53.004;6.770;2024-02-14T06:46:15;1.00;;;0.98;;
54177;SDS011;40085;53.004;6.770;2024-02-14T06:48:41;1.65;;;1.25;;
54177;SDS011;40085;53.004;6.770;2024-02-14T06:51:07;1.10;;;1.02;;
54177;SDS011;40085;53.004;6.770;2024-02-14T06:53:33;1.45;;;1.25;;
54177;SDS011;40085;53.004;6.770;2024-02-14T06:56:13;1.50;;;1.17;;
54177;SDS011;40085;53.004;6.770;2024-02-14T06:58:38;1.40;;;1.30;;
54177;SDS011;40085;53.004;6.770;2024-02-14T07:01:04;1.40;;;1.30;;
54177;SDS011;40085;53.004;6.770;2024-02-14T07:03:30;2.53;;;1.70;;
54177;SDS011;40085;53.004;6.770;2024-02-14T07:05:55;1.73;;;1.40;;
54177;SDS011;40085;53.004;6.770;2024-02-14T07:08:21;2.03;;;1.80;;
54177;SDS011;40085;53.004;6.770;2024-02-14T07:10:46;3.45;;;2.30;;
54177;SDS011;40085;53.004;6.770;2024-02-14T07:13:12;3.85;;;2.08;;
54177;SDS011;40085;53.004;6.770;2024-02-14T07:15:39;2.35;;;1.90;;
54177;SDS011;40085;53.004;6.770;2024-02-14T07:18:04;2.63;;;1.80;;
54177;SDS011;40085;53.004;6.770;2024-02-14T07:20:30;3.67;;;2.20;;
54177;SDS011;40085;53.004;6.770;2024-02-14T07:22:56;2.97;;;2.25;;
54177;SDS011;40085;53.004;6.770;2024-02-14T07:25:22;3.80;;;2.20;;
54177;SDS011;40085;53.004;6.770;2024-02-14T07:27:48;3.97;;;2.15;;
54177;SDS011;40085;53.004;6.770;2024-02-14T07:30:17;3.58;;;2.00;;
54177;SDS011;40085;53.004;6.770;2024-02-14T07:32:46;4.18;;;2.53;;
54177;SDS011;40085;53.004;6.770;2024-02-14T07:35:12;2.97;;;1.90;;
54177;SDS011;40085;53.004;6.770;2024-02-14T07:37:41;3.60;;;2.20;;
54177;SDS011;40085;53.004;6.770;2024-02-14T07:40:07;5.72;;;2.13;;
54177;SDS011;40085;53.004;6.770;2024-02-14T07:42:33;5.65;;;2.63;;
54177;SDS011;40085;53.004;6.770;2024-02-14T07:44:59;4.15;;;2.28;;
54177;SDS011;40085;53.004;6.770;2024-02-14T07:47:24;3.72;;;2.63;;
54177;SDS011;40085;53.004;6.770;2024-02-14T07:49:50;2.60;;;1.80;;
54177;SDS011;40085;53.004;6.770;2024-02-14T07:52:18;4.05;;;2.63;;
54177;SDS011;40085;53.004;6.770;2024-02-14T07:54:43;3.38;;;2.10;;
54177;SDS011;40085;53.004;6.770;2024-02-14T07:57:16;2.30;;;1.70;;
54177;SDS011;40085;53.004;6.770;2024-02-14T07:59:41;3.75;;;1.95;;
54177;SDS011;40085;53.004;6.770;2024-02-14T08:02:07;3.08;;;1.88;;
54177;SDS011;40085;53.004;6.770;2024-02-14T08:04:33;3.08;;;1.55;;
54177;SDS011;40085;53.004;6.770;2024-02-14T08:06:58;2.47;;;1.60;;
54177;SDS011;40085;53.004;6.770;2024-02-14T08:09:24;2.65;;;1.98;;
54177;SDS011;40085;53.004;6.770;2024-02-14T08:11:49;3.10;;;1.83;;
54177;SDS011;40085;53.004;6.770;2024-02-14T08:14:18;2.47;;;1.63;;
54177;SDS011;40085;53.004;6.770;2024-02-14T08:16:43;4.05;;;2.00;;
54177;SDS011;40085;53.004;6.770;2024-02-14T08:19:09;3.30;;;2.08;;
54177;SDS011;40085;53.004;6.770;2024-02-14T08:21:35;3.75;;;1.58;;
54177;SDS011;40085;53.004;6.770;2024-02-14T08:24:01;3.53;;;1.85;;
54177;SDS011;40085;53.004;6.770;2024-02-14T08:26:26;5.72;;;2.38;;
54177;SDS011;40085;53.004;6.770;2024-02-14T08:28:52;4.20;;;2.20;;
54177;SDS011;40085;53.004;6.770;2024-02-14T08:31:19;3.42;;;2.38;;
54177;SDS011;40085;53.004;6.770;2024-02-14T08:33:45;2.35;;;1.73;;
54177;SDS011;40085;53.004;6.770;2024-02-14T08:36:10;2.47;;;1.77;;
54177;SDS011;40085;53.004;6.770;2024-02-14T08:38:36;2.00;;;1.80;;
54177;SDS011;40085;53.004;6.770;2024-02-14T08:41:02;2.92;;;1.63;;
54177;SDS011;40085;53.004;6.770;2024-02-14T08:43:28;1.95;;;1.30;;
54177;SDS011;40085;53.004;6.770;2024-02-14T08:45:54;3.17;;;1.80;;
54177;SDS011;40085;53.004;6.770;2024-02-14T08:48:20;2.45;;;1.67;;
54177;SDS011;40085;53.004;6.770;2024-02-14T08:50:46;3.00;;;2.00;;
54177;SDS011;40085;53.004;6.770;2024-02-14T08:53:12;2.60;;;1.35;;
54177;SDS011;40085;53.004;6.770;2024-02-14T08:55:39;2.50;;;1.30;;
54177;SDS011;40085;53.004;6.770;2024-02-14T08:58:12;1.90;;;1.60;;
54177;SDS011;40085;53.004;6.770;2024-02-14T09:00:37;1.65;;;1.33;;
54177;SDS011;40085;53.004;6.770;2024-02-14T09:03:04;3.00;;;1.45;;
54177;SDS011;40085;53.004;6.770;2024-02-14T09:05:31;1.58;;;1.38;;
54177;SDS011;40085;53.004;6.770;2024-02-14T09:07:57;1.77;;;1.40;;
54177;SDS011;40085;53.004;6.770;2024-02-14T09:10:23;2.30;;;1.67;;
54177;SDS011;40085;53.004;6.770;2024-02-14T09:12:48;1.90;;;1.10;;
54177;SDS011;40085;53.004;6.770;2024-02-14T09:15:14;2.35;;;1.42;;
54177;SDS011;40085;53.004;6.770;2024-02-14T09:17:40;1.80;;;1.30;;
54177;SDS011;40085;53.004;6.770;2024-02-14T09:20:07;1.45;;;1.30;;
54177;SDS011;40085;53.004;6.770;2024-02-14T09:22:37;1.95;;;1.50;;
54177;SDS011;40085;53.004;6.770;2024-02-14T09:25:03;1.77;;;1.55;;
54177;SDS011;40085;53.004;6.770;2024-02-14T09:27:29;3.08;;;2.13;;
54177;SDS011;40085;53.004;6.770;2024-02-14T09:29:55;1.83;;;1.45;;
54177;SDS011;40085;53.004;6.770;2024-02-14T09:32:21;2.00;;;1.60;;
54177;SDS011;40085;53.004;6.770;2024-02-14T09:34:47;2.17;;;1.90;;
54177;SDS011;40085;53.004;6.770;2024-02-14T09:37:13;3.08;;;2.05;;
54177;SDS011;40085;53.004;6.770;2024-02-14T09:39:39;2.28;;;1.95;;
54177;SDS011;40085;53.004;6.770;2024-02-14T09:42:11;2.60;;;2.40;;
54177;SDS011;40085;53.004;6.770;2024-02-14T09:44:39;2.53;;;2.33;;
54177;SDS011;40085;53.004;6.770;2024-02-14T09:47:05;2.78;;;2.50;;
54177;SDS011;40085;53.004;6.770;2024-02-14T09:49:34;2.47;;;2.28;;
54177;SDS011;40085;53.004;6.770;2024-02-14T09:52:03;2.95;;;1.90;;
54177;SDS011;40085;53.004;6.770;2024-02-14T09:54:38;2.90;;;2.60;;
54177;SDS011;40085;53.004;6.770;2024-02-14T09:57:11;3.30;;;2.97;;
54177;SDS011;40085;53.004;6.770;2024-02-14T09:59:45;3.13;;;2.83;;
54177;SDS011;40085;53.004;6.770;2024-02-14T10:02:11;2.53;;;2.33;;
54177;SDS011;40085;53.004;6.770;2024-02-14T10:04:37;2.72;;;2.53;;
54177;SDS011;40085;53.004;6.770;2024-02-14T10:07:04;2.35;;;2.13;;
54177;SDS011;40085;53.004;6.770;2024-02-14T10:09:30;2.55;;;2.35;;
54177;SDS011;40085;53.004;6.770;2024-02-14T10:11:56;2.40;;;2.20;;
54177;SDS011;40085;53.004;6.770;2024-02-14T10:14:25;2.78;;;2.58;;
54177;SDS011;40085;53.004;6.770;2024-02-14T10:16:51;2.38;;;2.20;;
54177;SDS011;40085;53.004;6.770;2024-02-14T10:19:17;2.58;;;2.38;;
54177;SDS011;40085;53.004;6.770;2024-02-14T10:21:43;2.80;;;2.60;;
54177;SDS011;40085;53.004;6.770;2024-02-14T10:24:20;2.83;;;2.63;;
54177;SDS011;40085;53.004;6.770;2024-02-14T10:26:46;2.72;;;2.53;;
54177;SDS011;40085;53.004;6.770;2024-02-14T10:29:11;3.00;;;2.80;;
54177;SDS011;40085;53.004;6.770;2024-02-14T10:31:39;2.70;;;2.50;;
54177;SDS011;40085;53.004;6.770;2024-02-14T10:34:05;2.95;;;2.67;;
54177;SDS011;40085;53.004;6.770;2024-02-14T10:36:33;2.40;;;2.20;;
54177;SDS011;40085;53.004;6.770;2024-02-14T10:39:00;2.47;;;2.28;;
54177;SDS011;40085;53.004;6.770;2024-02-14T10:41:29;2.55;;;2.35;;
54177;SDS011;40085;53.004;6.770;2024-02-14T10:44:00;2.40;;;2.20;;
54177;SDS011;40085;53.004;6.770;2024-02-14T10:46:26;2.40;;;2.20;;
54177;SDS011;40085;53.004;6.770;2024-02-14T10:48:58;2.33;;;2.13;;
54177;SDS011;40085;53.004;6.770;2024-02-14T10:51:24;2.35;;;2.15;;
54177;SDS011;40085;53.004;6.770;2024-02-14T10:53:58;1.95;;;1.85;;
54177;SDS011;40085;53.004;6.770;2024-02-14T10:56:35;2.75;;;2.55;;
54177;SDS011;40085;53.004;6.770;2024-02-14T10:59:13;2.00;;;1.90;;
54177;SDS011;40085;53.004;6.770;2024-02-14T11:01:41;2.42;;;2.22;;
54177;SDS011;40085;53.004;6.770;2024-02-14T11:04:07;2.42;;;2.22;;
54177;SDS011;40085;53.004;6.770;2024-02-14T11:06:46;2.55;;;2.35;;
54177;SDS011;40085;53.004;6.770;2024-02-14T11:09:14;2.22;;;2.03;;
54177;SDS011;40085;53.004;6.770;2024-02-14T11:11:43;2.30;;;2.10;;
54177;SDS011;40085;53.004;6.770;2024-02-14T11:14:10;2.20;;;2.00;;
54177;SDS011;40085;53.004;6.770;2024-02-14T11:16:37;2.05;;;1.85;;
54177;SDS011;40085;53.004;6.770;2024-02-14T11:19:10;1.98;;;1.88;;
54177;SDS011;40085;53.004;6.770;2024-02-14T11:21:44;2.65;;;2.30;;
54177;SDS011;40085;53.004;6.770;2024-02-14T11:24:11;2.08;;;1.98;;
54177;SDS011;40085;53.004;6.770;2024-02-14T11:26:45;2.20;;;2.00;;
54177;SDS011;40085;53.004;6.770;2024-02-14T11:29:15;2.33;;;2.13;;
54177;SDS011;40085;53.004;6.770;2024-02-14T11:31:41;2.13;;;2.03;;
54177;SDS011;40085;53.004;6.770;2024-02-14T11:34:08;2.53;;;2.33;;
54177;SDS011;40085;53.004;6.770;2024-02-14T11:36:35;2.30;;;2.15;;
54177;SDS011;40085;53.004;6.770;2024-02-14T11:39:02;2.42;;;2.22;;
54177;SDS011;40085;53.004;6.770;2024-02-14T11:41:29;2.47;;;2.28;;
54177;SDS011;40085;53.004;6.770;2024-02-14T11:43:55;2.42;;;2.22;;
54177;SDS011;40085;53.004;6.770;2024-02-14T11:46:22;3.47;;;3.17;;
54177;SDS011;40085;53.004;6.770;2024-02-14T11:48:48;2.70;;;2.50;;
54177;SDS011;40085;53.004;6.770;2024-02-14T11:51:14;3.28;;;3.03;;
54177;SDS011;40085;53.004;6.770;2024-02-14T11:53:47;2.72;;;2.53;;
54177;SDS011;40085;53.004;6.770;2024-02-14T11:56:21;3.15;;;2.95;;
54177;SDS011;40085;53.004;6.770;2024-02-14T11:58:58;2.33;;;2.17;;
54177;SDS011;40085;53.004;6.770;2024-02-14T12:01:25;2.83;;;2.63;;
54177;SDS011;40085;53.004;6.770;2024-02-14T12:03:51;2.78;;;2.53;;
54177;SDS011;40085;53.004;6.770;2024-02-14T12:06:17;2.40;;;2.20;;
54177;SDS011;40085;53.004;6.770;2024-02-14T12:08:44;2.60;;;2.40;;
54177;SDS011;40085;53.004;6.770;2024-02-14T12:11:10;2.50;;;2.30;;
54177;SDS011;40085;53.004;6.770;2024-02-14T12:13:36;2.45;;;2.28;;
54177;SDS011;40085;53.004;6.770;2024-02-14T12:16:08;2.60;;;2.40;;
54177;SDS011;40085;53.004;6.770;2024-02-14T12:18:34;2.28;;;2.13;;
54177;SDS011;40085;53.004;6.770;2024-02-14T12:21:04;2.30;;;2.10;;
54177;SDS011;40085;53.004;6.770;2024-02-14T12:23:32;2.03;;;1.90;;
54177;SDS011;40085;53.004;6.770;2024-02-14T12:26:02;2.38;;;2.17;;
54177;SDS011;40085;53.004;6.770;2024-02-14T12:28:29;3.20;;;2.35;;
54177;SDS011;40085;53.004;6.770;2024-02-14T12:30:59;1.83;;;1.73;;
54177;SDS011;40085;53.004;6.770;2024-02-14T12:33:25;2.13;;;1.98;;
54177;SDS011;40085;53.004;6.770;2024-02-14T12:35:55;2.10;;;2.00;;
54177;SDS011;40085;53.004;6.770;2024-02-14T12:38:22;2.20;;;2.00;;
54177;SDS011;40085;53.004;6.770;2024-02-14T12:40:48;2.03;;;1.92;;
54177;SDS011;40085;53.004;6.770;2024-02-14T12:43:15;1.70;;;1.60;;
54177;SDS011;40085;53.004;6.770;2024-02-14T12:45:41;1.58;;;1.48;;
54177;SDS011;40085;53.004;6.770;2024-02-14T12:48:08;1.85;;;1.75;;
54177;SDS011;40085;53.004;6.770;2024-02-14T12:50:35;1.70;;;1.60;;
54177;SDS011;40085;53.004;6.770;2024-02-14T12:53:02;1.65;;;1.55;;
54177;SDS011;40085;53.004;6.770;2024-02-14T12:55:34;1.60;;;1.50;;
54177;SDS011;40085;53.004;6.770;2024-02-14T12:58:07;1.65;;;1.55;;
54177;SDS011;40085;53.004;6.770;2024-02-14T13:00:40;1.65;;;1.55;;
54177;SDS011;40085;53.004;6.770;2024-02-14T13:03:07;1.58;;;1.48;;
54177;SDS011;40085;53.004;6.770;2024-02-14T13:05:35;1.63;;;1.52;;
54177;SDS011;40085;53.004;6.770;2024-02-14T13:08:01;1.45;;;1.35;;
54177;SDS011;40085;53.004;6.770;2024-02-14T13:10:27;1.50;;;1.40;;
54177;SDS011;40085;53.004;6.770;2024-02-14T13:12:54;1.50;;;1.40;;
54177;SDS011;40085;53.004;6.770;2024-02-14T13:15:19;1.60;;;1.50;;
54177;SDS011;40085;53.004;6.770;2024-02-14T13:17:45;1.50;;;1.40;;
54177;SDS011;40085;53.004;6.770;2024-02-14T13:20:11;1.50;;;1.40;;
54177;SDS011;40085;53.004;6.770;2024-02-14T13:22:37;1.77;;;1.67;;
54177;SDS011;40085;53.004;6.770;2024-02-14T13:25:03;1.80;;;1.70;;
54177;SDS011;40085;53.004;6.770;2024-02-14T13:27:30;2.00;;;1.80;;
54177;SDS011;40085;53.004;6.770;2024-02-14T13:29:55;1.90;;;1.80;;
54177;SDS011;40085;53.004;6.770;2024-02-14T13:32:21;2.60;;;2.40;;
54177;SDS011;40085;53.004;6.770;2024-02-14T13:34:47;2.08;;;1.88;;
54177;SDS011;40085;53.004;6.770;2024-02-14T13:37:13;2.22;;;2.03;;
54177;SDS011;40085;53.004;6.770;2024-02-14T13:39:40;2.40;;;2.22;;
54177;SDS011;40085;53.004;6.770;2024-02-14T13:42:06;2.13;;;2.03;;
54177;SDS011;40085;53.004;6.770;2024-02-14T13:44:33;2.30;;;2.10;;
54177;SDS011;40085;53.004;6.770;2024-02-14T13:46:58;2.70;;;2.50;;
54177;SDS011;40085;53.004;6.770;2024-02-14T13:49:24;2.65;;;2.45;;
54177;SDS011;40085;53.004;6.770;2024-02-14T13:51:51;2.35;;;2.15;;
54177;SDS011;40085;53.004;6.770;2024-02-14T13:54:23;2.10;;;2.00;;
54177;SDS011;40085;53.004;6.770;2024-02-14T13:56:55;1.85;;;1.75;;
54177;SDS011;40085;53.004;6.770;2024-02-14T13:59:28;2.33;;;2.17;;
54177;SDS011;40085;53.004;6.770;2024-02-14T14:01:54;2.10;;;1.90;;
54177;SDS011;40085;53.004;6.770;2024-02-14T14:04:20;1.75;;;1.65;;
54177;SDS011;40085;53.004;6.770;2024-02-14T14:06:48;1.70;;;1.60;;
54177;SDS011;40085;53.004;6.770;2024-02-14T14:09:14;2.00;;;1.90;;
54177;SDS011;40085;53.004;6.770;2024-02-14T14:11:39;1.40;;;1.30;;
54177;SDS011;40085;53.004;6.770;2024-02-14T14:14:05;1.65;;;1.55;;
54177;SDS011;40085;53.004;6.770;2024-02-14T14:16:31;1.83;;;1.73;;
54177;SDS011;40085;53.004;6.770;2024-02-14T14:19:00;1.27;;;1.17;;
54177;SDS011;40085;53.004;6.770;2024-02-14T14:21:26;1.48;;;1.38;;
54177;SDS011;40085;53.004;6.770;2024-02-14T14:23:52;1.27;;;1.17;;
54177;SDS011;40085;53.004;6.770;2024-02-14T14:26:17;1.30;;;1.20;;
54177;SDS011;40085;53.004;6.770;2024-02-14T14:28:43;1.30;;;1.20;;
54177;SDS011;40085;53.004;6.770;2024-02-14T14:31:09;1.25;;;1.15;;
54177;SDS011;40085;53.004;6.770;2024-02-14T14:33:37;1.00;;;1.00;;
54177;SDS011;40085;53.004;6.770;2024-02-14T14:36:04;0.90;;;0.90;;
54177;SDS011;40085;53.004;6.770;2024-02-14T14:38:30;0.85;;;0.85;;
54177;SDS011;40085;53.004;6.770;2024-02-14T14:40:55;0.82;;;0.82;;
54177;SDS011;40085;53.004;6.770;2024-02-14T14:43:22;0.60;;;0.60;;
54177;SDS011;40085;53.004;6.770;2024-02-14T14:45:48;0.70;;;0.70;;
54177;SDS011;40085;53.004;6.770;2024-02-14T14:48:14;0.90;;;0.90;;